createdAt,value
2022-10-29T00:00:38.847Z,11.10
2022-10-29T00:04:00.916Z,11.88
2022-10-29T00:07:02.887Z,11.73
2022-10-29T00:10:05.684Z,10.32
2022-10-29T00:13:07.551Z,10.43
2022-10-29T00:16:18.538Z,10.35
2022-10-29T00:19:20.493Z,10.20
2022-10-29T00:22:23.917Z,9.85
2022-10-29T00:25:25.779Z,9.68
2022-10-29T00:28:29.102Z,9.90
2022-10-29T00:31:31.419Z,10.05
2022-10-29T00:34:33.669Z,9.90
2022-10-29T00:37:35.968Z,9.85
2022-10-29T00:40:38.728Z,9.98
2022-10-29T00:43:45.795Z,9.18
2022-10-29T00:46:52.611Z,10.77
2022-10-29T00:50:06.646Z,10.23
2022-10-29T00:53:08.874Z,9.75
2022-10-29T00:56:11.687Z,9.52
2022-10-29T00:59:16.355Z,9.82
2022-10-29T01:02:18.798Z,10.57
2022-10-29T01:05:25.001Z,9.88
2022-10-29T01:08:26.912Z,10.60
2022-10-29T01:11:52.136Z,9.60
2022-10-29T01:15:15.423Z,9.43
2022-10-29T01:18:23.795Z,9.07
2022-10-29T01:21:42.804Z,9.20
2022-10-29T01:25:22.683Z,8.95
2022-10-29T01:31:45.013Z,8.25
2022-10-29T01:35:03.020Z,8.15
2022-10-29T01:38:17.312Z,7.88
2022-10-29T01:41:28.286Z,8.43
2022-10-29T01:44:38.164Z,8.38
2022-10-29T01:47:52.630Z,8.20
2022-10-29T01:50:58.345Z,8.00
2022-10-29T01:54:02.327Z,7.70
2022-10-29T01:57:24.404Z,7.45
2022-10-29T02:00:27.024Z,7.32
2022-10-29T02:03:58.821Z,7.75
2022-10-29T02:07:10.467Z,7.45
2022-10-29T02:10:21.897Z,7.55
2022-10-29T02:13:33.019Z,6.43
2022-10-29T02:16:35.179Z,6.30
2022-10-29T02:19:37.566Z,7.35
2022-10-29T02:22:39.732Z,7.28
2022-10-29T02:25:41.818Z,7.28
2022-10-29T02:28:44.249Z,7.15
2022-10-29T02:31:46.301Z,7.13
2022-10-29T02:34:48.390Z,7.50
2022-10-29T02:37:50.349Z,6.40
2022-10-29T02:40:52.785Z,6.75
2022-10-29T02:43:54.795Z,7.13
2022-10-29T02:46:56.934Z,7.22
2022-10-29T02:49:58.845Z,7.28
2022-10-29T02:53:00.947Z,7.00
2022-10-29T02:56:03.559Z,7.00
2022-10-29T02:59:09.165Z,6.45
2022-10-29T03:02:13.762Z,6.50
2022-10-29T03:05:15.979Z,6.97
2022-10-29T03:08:18.297Z,7.40
2022-10-29T03:11:20.476Z,8.40
2022-10-29T03:14:22.477Z,6.85
2022-10-29T03:17:25.084Z,7.20
2022-10-29T03:20:27.011Z,6.30
2022-10-29T03:23:29.255Z,6.72
2022-10-29T03:26:31.253Z,6.70
2022-10-29T03:29:33.321Z,6.55
2022-10-29T03:32:35.252Z,6.47
2022-10-29T03:35:37.431Z,6.78
2022-10-29T03:38:39.418Z,6.65
2022-10-29T03:41:41.659Z,6.05
2022-10-29T03:44:43.517Z,6.40
2022-10-29T03:47:45.606Z,6.72
2022-10-29T03:51:01.702Z,6.03
2022-10-29T03:54:03.970Z,6.55
2022-10-29T03:57:05.844Z,6.97
2022-10-29T04:00:09.247Z,6.38
2022-10-29T04:03:11.208Z,6.68
2022-10-29T04:06:15.797Z,6.00
2022-10-29T04:09:17.932Z,6.45
2022-10-29T04:12:20.050Z,6.22
2022-10-29T04:15:22.020Z,6.20
2022-10-29T04:18:24.818Z,6.45
2022-10-29T04:27:37.468Z,6.00
2022-10-29T04:31:32.889Z,6.18
2022-10-29T04:34:34.832Z,6.32
2022-10-29T04:37:36.968Z,6.25
2022-10-29T04:40:39.343Z,6.57
2022-10-29T04:43:41.490Z,6.15
2022-10-29T04:46:43.370Z,6.30
2022-10-29T04:49:45.536Z,5.90
2022-10-29T04:52:47.475Z,6.88
2022-10-29T04:55:49.692Z,6.07
2022-10-29T04:58:52.722Z,6.40
2022-10-29T05:01:54.845Z,6.28
2022-10-29T05:04:56.736Z,7.32
2022-10-29T05:08:03.408Z,6.55
2022-10-29T05:11:06.157Z,6.13
2022-10-29T05:14:08.285Z,6.18
2022-10-29T05:17:10.204Z,6.93
2022-10-29T05:20:12.281Z,7.10
2022-10-29T05:23:14.356Z,6.32
2022-10-29T05:26:16.458Z,6.50
2022-10-29T05:29:18.448Z,6.70
2022-10-29T05:32:20.560Z,5.90
2022-10-29T05:35:22.780Z,6.00
2022-10-29T05:38:24.920Z,6.20
2022-10-29T05:41:26.864Z,5.82
2022-10-29T05:44:29.005Z,6.55
2022-10-29T05:47:30.932Z,6.30
2022-10-29T05:50:34.086Z,6.07
2022-10-29T05:53:36.455Z,6.45
2022-10-29T05:56:38.651Z,6.82
2022-10-29T05:59:40.534Z,6.22
2022-10-29T06:02:46.227Z,6.43
2022-10-29T06:05:49.317Z,7.03
2022-10-29T06:08:51.462Z,6.70
2022-10-29T06:11:55.169Z,6.25
2022-10-29T06:14:57.289Z,6.47
2022-10-29T06:17:59.281Z,6.65
2022-10-29T06:21:01.672Z,6.90
2022-10-29T06:24:03.747Z,6.78
2022-10-29T06:27:05.959Z,7.38
2022-10-29T06:30:08.551Z,7.60
2022-10-29T06:33:10.766Z,6.45
2022-10-29T06:36:12.710Z,6.63
2022-10-29T06:39:14.788Z,7.43
2022-10-29T06:42:16.711Z,7.35
2022-10-29T06:45:18.895Z,6.88
2022-10-29T06:48:22.354Z,7.15
2022-10-29T06:51:24.975Z,6.38
2022-10-29T06:54:26.874Z,7.10
2022-10-29T06:57:29.810Z,7.80
2022-10-29T07:00:32.973Z,6.90
2022-10-29T07:03:35.203Z,7.22
2022-10-29T07:06:37.057Z,6.65
2022-10-29T07:09:39.183Z,7.18
2022-10-29T07:12:44.583Z,6.88
2022-10-29T07:15:46.745Z,7.40
2022-10-29T07:18:48.651Z,7.60
2022-10-29T07:21:50.822Z,7.75
2022-10-29T07:24:54.803Z,6.90
2022-10-29T07:28:08.574Z,6.65
2022-10-29T07:31:10.568Z,7.15
2022-10-29T07:34:12.673Z,6.65
2022-10-29T07:37:14.596Z,7.82
2022-10-29T07:40:17.002Z,6.82
2022-10-29T07:43:20.564Z,7.47
2022-10-29T07:46:22.622Z,7.78
2022-10-29T07:49:24.482Z,7.93
2022-10-29T07:52:26.611Z,7.30
2022-10-29T07:58:31.882Z,7.32
2022-10-29T08:01:33.970Z,7.22
2022-10-29T08:04:36.394Z,7.57
2022-10-29T08:07:38.303Z,7.25
2022-10-29T08:10:40.467Z,7.40
2022-10-29T08:13:42.429Z,7.35
2022-10-29T08:16:44.542Z,7.95
2022-10-29T08:19:46.442Z,7.38
2022-10-29T08:22:48.604Z,7.35
2022-10-29T08:25:51.807Z,7.38
2022-10-29T08:28:53.944Z,7.90
2022-10-29T08:31:55.818Z,8.27
2022-10-29T08:34:57.951Z,8.20
2022-10-29T08:38:00.327Z,8.05
2022-10-29T08:41:28.594Z,7.57
2022-10-29T08:44:32.613Z,8.40
2022-10-29T08:48:05.342Z,8.23
2022-10-29T08:51:23.025Z,8.45
2022-10-29T08:54:32.049Z,7.53
2022-10-29T08:57:42.160Z,7.68
2022-10-29T09:00:44.336Z,7.95
2022-10-29T09:03:46.333Z,8.10
2022-10-29T09:07:17.520Z,7.40
2022-10-29T09:10:47.276Z,8.13
2022-10-29T09:14:16.882Z,7.25
2022-10-29T09:18:06.978Z,7.00
2022-10-29T09:21:54.427Z,7.07
2022-10-29T09:25:26.241Z,7.30
2022-10-29T09:28:48.620Z,7.65
2022-10-29T09:32:19.963Z,7.75
2022-10-29T09:35:27.750Z,7.68
2022-10-29T09:38:42.742Z,7.10
2022-10-29T09:41:45.179Z,6.70
2022-10-29T09:44:56.067Z,6.70
2022-10-29T09:48:11.369Z,7.25
2022-10-29T09:51:41.009Z,7.45
2022-10-29T09:54:43.500Z,7.22
2022-10-29T09:57:46.863Z,6.25
2022-10-29T10:00:49.629Z,7.20
2022-10-29T10:03:58.500Z,7.30
2022-10-29T10:07:05.427Z,6.70
2022-10-29T10:10:23.037Z,6.65
2022-10-29T10:13:29.005Z,5.88
2022-10-29T10:16:33.671Z,6.72
2022-10-29T10:19:46.263Z,6.93
2022-10-29T10:22:48.185Z,6.47
2022-10-29T10:25:53.767Z,6.45
2022-10-29T10:29:11.971Z,6.78
2022-10-29T10:32:16.560Z,5.82
2022-10-29T10:35:30.512Z,5.35
2022-10-29T10:38:45.255Z,5.95
2022-10-29T10:41:50.728Z,5.80
2022-10-29T10:45:15.049Z,5.55
2022-10-29T10:48:18.031Z,5.82
2022-10-29T10:51:28.293Z,6.07
2022-10-29T10:54:37.916Z,6.47
2022-10-29T10:57:54.628Z,6.35
2022-10-29T11:01:20.319Z,5.80
2022-10-29T11:04:33.254Z,6.60
2022-10-29T11:07:39.633Z,5.47
2022-10-29T11:10:54.401Z,6.00
2022-10-29T11:14:01.482Z,5.63
2022-10-29T11:17:06.961Z,5.88
2022-10-29T11:20:23.839Z,5.95
2022-10-29T11:23:35.870Z,6.57
2022-10-29T11:26:43.348Z,5.63
2022-10-29T11:29:54.674Z,5.03
2022-10-29T11:33:22.536Z,4.90
2022-10-29T11:36:27.412Z,4.90
2022-10-29T11:39:41.787Z,5.25
2022-10-29T11:42:44.766Z,4.95
2022-10-29T11:46:24.399Z,4.20
2022-10-29T11:49:58.283Z,4.43
2022-10-29T11:53:00.383Z,4.68
2022-10-29T11:56:32.268Z,4.82
2022-10-29T11:59:40.035Z,4.78
2022-10-29T12:03:24.494Z,4.75
2022-10-29T12:06:41.182Z,4.80
2022-10-29T12:10:24.588Z,3.88
2022-10-29T12:13:55.390Z,4.45
2022-10-29T12:17:32.907Z,4.95
2022-10-29T12:21:06.973Z,4.00
2022-10-29T12:24:38.110Z,4.00
2022-10-29T12:27:47.116Z,4.60
2022-10-29T12:30:58.450Z,4.40
2022-10-29T12:34:13.928Z,4.18
2022-10-29T12:37:25.800Z,4.50
2022-10-29T12:40:50.674Z,4.40
2022-10-29T12:44:03.931Z,4.28
2022-10-29T12:47:29.480Z,4.10
2022-10-29T12:50:54.293Z,4.68
2022-10-29T12:54:24.489Z,4.47
2022-10-29T12:57:31.356Z,4.20
2022-10-29T13:00:47.441Z,4.78
2022-10-29T13:03:55.730Z,4.15
2022-10-29T13:07:24.762Z,4.53
2022-10-29T13:10:35.884Z,3.95
2022-10-29T13:13:50.100Z,4.35
2022-10-29T13:16:53.585Z,3.58
2022-10-29T13:20:00.270Z,4.10
2022-10-29T13:23:05.355Z,4.07
2022-10-29T13:26:10.268Z,4.30
2022-10-29T13:29:12.419Z,4.22
2022-10-29T13:32:38.469Z,4.35
2022-10-29T13:35:41.808Z,4.20
2022-10-29T13:39:04.945Z,4.35
2022-10-29T13:42:12.853Z,4.43
2022-10-29T13:45:15.095Z,4.32
2022-10-29T13:48:26.401Z,4.30
2022-10-29T13:51:35.141Z,4.40
2022-10-29T13:54:51.935Z,4.65
2022-10-29T13:58:15.292Z,4.40
2022-10-29T14:01:21.661Z,4.30
2022-10-29T14:04:29.885Z,4.93
2022-10-29T14:08:13.854Z,4.50
2022-10-29T14:11:26.254Z,5.25
2022-10-29T14:15:10.606Z,5.25
2022-10-29T14:18:26.258Z,5.13
2022-10-29T14:21:31.052Z,5.13
2022-10-29T14:24:39.271Z,4.70
2022-10-29T14:27:41.487Z,5.13
2022-10-29T14:30:48.059Z,5.07
2022-10-29T14:33:59.100Z,4.78
2022-10-29T14:37:13.846Z,5.07
2022-10-29T14:40:22.067Z,4.95
2022-10-29T14:43:29.196Z,4.43
2022-10-29T14:46:34.289Z,5.45
2022-10-29T14:49:45.014Z,5.28
2022-10-29T14:52:56.853Z,5.85
2022-10-29T14:56:02.248Z,5.25
2022-10-29T14:59:15.598Z,5.43
2022-10-29T15:02:36.926Z,5.13
2022-10-29T15:05:40.570Z,5.13
2022-10-29T15:08:45.012Z,5.97
2022-10-29T15:11:58.349Z,4.97
2022-10-29T15:15:21.209Z,5.60
2022-10-29T15:18:25.872Z,6.03
2022-10-29T15:21:31.692Z,5.40
2022-10-29T15:24:33.916Z,6.28
2022-10-29T15:27:37.301Z,6.22
2022-10-29T15:30:39.842Z,5.90
2022-10-29T15:33:41.855Z,6.20
2022-10-29T15:36:52.412Z,5.90
2022-10-29T15:39:57.430Z,6.68
2022-10-29T15:43:32.286Z,7.05
2022-10-29T15:46:47.573Z,6.03
2022-10-29T15:49:49.748Z,6.38
2022-10-29T15:52:56.806Z,9.75
2022-10-29T15:55:59.096Z,6.82
2022-10-29T15:59:01.051Z,7.30
2022-10-29T16:02:14.169Z,7.75
2022-10-29T16:05:17.644Z,8.35
2022-10-29T16:08:33.995Z,9.32
2022-10-29T16:11:36.008Z,11.07
2022-10-29T16:14:38.148Z,9.15
2022-10-29T16:17:40.213Z,11.77
2022-10-29T16:20:42.447Z,10.75
2022-10-29T16:23:45.610Z,11.93
2022-10-29T16:26:47.766Z,13.07
2022-10-29T16:29:49.944Z,21.98
2022-10-29T16:32:52.908Z,18.02
2022-10-29T16:35:54.844Z,13.45
2022-10-29T16:38:57.021Z,19.75
2022-10-29T16:41:58.918Z,17.75
2022-10-29T16:45:01.125Z,24.67
2022-10-29T16:48:03.179Z,19.58
2022-10-29T16:51:06.335Z,17.77
2022-10-29T16:54:08.272Z,18.90
2022-10-29T16:57:10.424Z,20.63
2022-10-29T17:00:12.857Z,19.67
2022-10-29T17:03:17.091Z,21.60
2022-10-29T17:06:19.089Z,18.58
2022-10-29T17:09:25.540Z,19.77
2022-10-29T17:12:27.695Z,18.60
2022-10-29T17:15:29.777Z,21.00
2022-10-29T17:18:32.507Z,20.38
2022-10-29T17:21:34.783Z,23.20
2022-10-29T17:24:37.141Z,21.73
2022-10-29T17:27:40.787Z,22.20
2022-10-29T17:30:42.740Z,20.88
2022-10-29T17:33:44.976Z,20.45
2022-10-29T17:36:46.943Z,21.83
2022-10-29T17:39:49.017Z,21.60
2022-10-29T17:42:50.874Z,22.83
2022-10-29T17:45:53.113Z,31.27
2022-10-29T17:48:56.676Z,33.72
2022-10-29T17:51:58.861Z,27.98
2022-10-29T17:55:00.759Z,25.88
2022-10-29T17:58:02.857Z,32.95
2022-10-29T18:01:07.106Z,28.83
2022-10-29T18:04:09.400Z,28.58
2022-10-29T18:07:11.299Z,23.48
2022-10-29T18:10:13.514Z,24.30
2022-10-29T18:13:15.486Z,22.08
2022-10-29T18:16:22.945Z,29.70
2022-10-29T18:19:24.863Z,28.48
2022-10-29T18:22:26.925Z,24.75
2022-10-29T18:25:29.024Z,25.80
2022-10-29T18:28:31.703Z,26.60
2022-10-29T18:31:34.050Z,26.73
2022-10-29T18:34:36.379Z,36.50
2022-10-29T18:37:38.363Z,33.17
2022-10-29T18:40:40.612Z,36.08
2022-10-29T18:43:50.761Z,37.72
2022-10-29T18:46:52.905Z,36.30
2022-10-29T18:49:54.809Z,31.05
2022-10-29T18:52:57.092Z,29.58
2022-10-29T18:55:59.904Z,27.15
2022-10-29T18:59:02.002Z,27.40
2022-10-29T19:02:09.808Z,29.55
2022-10-29T19:05:11.994Z,29.00
2022-10-29T19:08:14.165Z,29.95
2022-10-29T19:11:19.569Z,40.72
2022-10-29T19:14:21.612Z,36.67
2022-10-29T19:17:23.795Z,38.17
2022-10-29T19:20:26.064Z,35.15
2022-10-29T19:23:28.213Z,41.22
2022-10-29T19:26:33.622Z,39.03
2022-10-29T19:29:37.017Z,31.52
2022-10-29T19:32:38.930Z,34.45
2022-10-29T19:35:41.064Z,39.75
2022-10-29T19:38:43.343Z,42.78
2022-10-29T19:41:48.562Z,35.28
2022-10-29T19:44:53.721Z,35.10
2022-10-29T19:48:00.216Z,36.15
2022-10-29T19:51:02.352Z,38.75
2022-10-29T19:54:07.137Z,39.58
2022-10-29T19:57:09.035Z,40.50
2022-10-29T20:00:16.582Z,45.42
2022-10-29T20:03:20.377Z,40.85
2022-10-29T20:06:22.577Z,40.92
2022-10-29T20:09:24.487Z,33.20
2022-10-29T20:12:26.680Z,32.22
2022-10-29T20:15:28.645Z,26.05
2022-10-29T20:18:31.008Z,22.88
2022-10-29T20:21:32.963Z,23.67
2022-10-29T20:24:35.386Z,22.63
2022-10-29T20:27:37.337Z,21.73
2022-10-29T20:30:39.627Z,22.20
2022-10-29T20:33:41.550Z,22.33
2022-10-29T20:36:46.979Z,20.83
2022-10-29T20:39:49.121Z,22.27
2022-10-29T20:42:51.489Z,20.95
2022-10-29T20:45:59.800Z,18.25
2022-10-29T20:49:02.286Z,17.33
2022-10-29T20:52:04.624Z,20.17
2022-10-29T20:55:07.783Z,19.05
2022-10-29T20:58:09.710Z,19.27
2022-10-29T21:01:14.701Z,23.25
2022-10-29T21:04:16.893Z,23.00
2022-10-29T21:07:19.202Z,22.02
2022-10-29T21:10:21.217Z,24.95
2022-10-29T21:13:23.372Z,25.50
2022-10-29T21:16:27.534Z,36.95
2022-10-29T21:19:29.773Z,45.83
2022-10-29T21:22:31.780Z,52.30
2022-10-29T21:25:33.913Z,38.00
2022-10-29T21:28:36.617Z,46.38
2022-10-29T21:31:38.753Z,41.08
2022-10-29T21:34:40.699Z,41.55
2022-10-29T21:37:42.843Z,40.63
2022-10-29T21:40:44.915Z,44.30
2022-10-29T21:43:47.016Z,46.55
2022-10-29T21:46:48.932Z,61.08
2022-10-29T21:49:51.926Z,37.45
2022-10-29T21:52:57.107Z,41.25
2022-10-29T21:56:01.137Z,46.00
2022-10-29T21:59:03.816Z,42.00
2022-10-29T22:02:06.031Z,22.10
2022-10-29T22:05:08.278Z,39.05
2022-10-29T22:08:10.413Z,23.27
2022-10-29T22:11:13.338Z,24.58
2022-10-29T22:14:16.567Z,30.50
2022-10-29T22:17:18.511Z,27.52
2022-10-29T22:20:20.597Z,27.27
2022-10-29T22:23:22.501Z,26.85
2022-10-29T22:26:27.015Z,24.52
2022-10-29T22:29:29.016Z,23.95
2022-10-29T22:32:31.124Z,29.00
2022-10-29T22:35:33.050Z,28.55
2022-10-29T22:38:35.536Z,26.00
2022-10-29T22:41:37.496Z,24.70
2022-10-29T22:44:39.728Z,24.88
2022-10-29T22:47:41.597Z,26.75
2022-10-29T22:50:43.691Z,27.25
2022-10-29T22:53:48.287Z,26.30
2022-10-29T22:56:50.428Z,26.50
2022-10-29T22:59:52.318Z,25.85
2022-10-29T23:02:54.548Z,27.30
2022-10-29T23:05:57.981Z,24.85
2022-10-29T23:09:01.780Z,25.92
2022-10-29T23:12:03.971Z,26.38
2022-10-29T23:15:08.428Z,25.25
2022-10-29T23:18:10.353Z,24.17
2022-10-29T23:21:12.504Z,23.58
2022-10-29T23:24:14.475Z,25.30
2022-10-29T23:27:16.628Z,25.25
2022-10-29T23:30:18.538Z,24.65
2022-10-29T23:33:20.973Z,24.27
2022-10-29T23:36:24.711Z,25.02
2022-10-29T23:39:27.396Z,25.60
2022-10-29T23:42:29.258Z,25.60
2022-10-29T23:45:31.491Z,24.23
2022-10-29T23:48:33.405Z,24.88
2022-10-29T23:54:42.355Z,24.88
2022-10-29T23:57:44.437Z,26.25
